Bismarck Municipal Airport
KBIS : now visible

Airfield :











YOU CAN JOIN US ON...

 
LOGIN :

Register | Disclaimer

   EN    FR    IT 

 









Legend :    VFR   Marginal VFR   IFR   Intensive IFR   Very Intensive IFR
Visi :
Ceiling :
>= 8 km
>= 3000ft
5 to 8 km
1000 to 3000 ft
1500m to 5 km
500 to 1000 ft
800 to 1500m
200 to 500 ft
< 800m
< 200 ft
Symbols :   Thunderstorms  Fog  Heavy snow  Heavy precipitations  Wind > 20 kt






- Airport Elevation : 1661 ft
- IATA code : BIS


KBIS - Bismarck Municipal

CURRENT METAR :
  • 310952Z AUTO 09009KT 10SM CLR 11/01 A3015 RMK AO2 SLP210 T01060011

EXPIRED METARs :
  • 310852Z AUTO 08006KT 10SM CLR 09/02 A3017 RMK AO2 SLP217 T00940017 56012
  • 310752Z AUTO 08006KT 10SM CLR 09/02 A3018 RMK AO2 SLP220 T00940017

TAF KBIS
Valid from the 31 at 06:00 until the 01 at 06:00 UTC


310529Z 3106/0106 13008KT P6SM SCT150
FM311200 13014G22KT P6SM BKN100
FM311700 15020G30KT P6SM OVC070
FM010200 15015G23KT P6SM OVC035
KZMP FIR / North America



MET'MAP, your aeronautical weather chart ! - Copyright ORBIFLY December 2007 - Disclaimer

ORBIFLY MET'MAP TEAM :

Programming & Development : Alexandra Zaïnal
Concept & original design : Baudouin d'Aumeries
Assistance for programming : Marc-Olivier Méhu
Technical & hardware support : Manuel Goepfert

Contact : metmap@orbifly.com




SOURCES & CREDITS :

   NOAA       Earth
Advisory